Time;durP1;ratioP1;P1;durP2;ratioP2;P2;SDS_P1;SDS_P2;PMS_P1;PMS_P2;Temp;Humidity;BMP_temperature;BMP_pressure;BME280_temperature;BME280_humidity;BME280_pressure;Samples;Min_cycle;Max_cycle;Signal;HPM_P1;HPM_P2
2022/03/02 00:00:12;;;;;;;19.92;7.97;;;;;;;10.94;50.29;99379.75;5074978;28;20378;-53
2022/03/02 00:02:38;;;;;;;62.67;13.43;;;;;;;10.97;55.32;99376.78;5093038;28;20386;-53
2022/03/02 00:05:05;;;;;;;19.50;10.35;;;;;;;10.92;55.92;99375.69;5093066;28;20045;-53
2022/03/02 00:07:30;;;;;;;19.58;9.30;;;;;;;10.87;55.04;99370.19;5074845;28;20028;-53
2022/03/02 00:09:56;;;;;;;18.52;9.60;;;;;;;10.81;56.19;99368.31;5093000;28;20016;-53
2022/03/02 00:12:22;;;;;;;22.55;11.00;;;;;;;10.86;55.77;99371.19;5074894;28;20073;-53
2022/03/02 00:14:48;;;;;;;23.00;9.35;;;;;;;10.87;54.91;99363.13;5074730;28;20025;-53
2022/03/02 00:17:14;;;;;;;33.20;16.27;;;;;;;10.92;54.38;99376.50;5092867;28;20020;-53
2022/03/02 00:19:41;;;;;;;27.63;12.15;;;;;;;10.98;53.04;99364.44;5092885;28;20060;-52
2022/03/02 00:22:07;;;;;;;26.58;12.50;;;;;;;10.89;52.29;99366.38;5092849;28;20020;-53
2022/03/02 00:24:33;;;;;;;24.00;12.65;;;;;;;10.82;52.19;99369.94;5092831;28;20039;-52
2022/03/02 00:26:59;;;;;;;20.88;10.85;;;;;;;10.77;52.65;99368.66;5092705;28;20016;-53
2022/03/02 00:29:26;;;;;;;14.70;9.27;;;;;;;10.74;51.87;99366.41;5073887;28;20050;-52
2022/03/02 00:31:52;;;;;;;18.50;8.60;;;;;;;10.67;51.50;99362.91;5092860;28;20107;-52
2022/03/02 00:34:18;;;;;;;17.70;8.75;;;;;;;10.56;51.47;99365.97;5092544;28;20111;-53
2022/03/02 00:36:44;;;;;;;19.15;9.27;;;;;;;10.53;51.83;99371.63;5074100;28;20047;-52
2022/03/02 00:39:10;;;;;;;12.48;7.95;;;;;;;10.37;51.58;99362.13;5092507;28;20024;-53
2022/03/02 00:41:36;;;;;;;17.83;8.70;;;;;;;10.24;51.63;99365.38;5092407;28;20032;-53
2022/03/02 00:44:03;;;;;;;17.42;10.00;;;;;;;10.12;53.64;99375.50;5092375;28;20027;-53
2022/03/02 00:46:31;;;;;;;25.13;9.73;;;;;;;10.01;54.34;99378.53;5092348;28;20032;-53
2022/03/02 00:48:58;;;;;;;25.85;10.18;;;;;;;9.90;54.32;99376.34;5092306;28;20031;-53
2022/03/02 00:51:25;;;;;;;23.52;11.25;;;;;;;9.88;55.76;99383.56;5092496;28;20062;-53
2022/03/02 00:53:52;;;;;;;20.92;9.38;;;;;;;9.79;53.83;99375.78;5074070;28;20028;-52
2022/03/02 00:56:19;;;;;;;17.50;10.23;;;;;;;9.80;54.56;99372.19;5091806;28;20016;-52
2022/03/02 00:58:45;;;;;;;21.77;8.60;;;;;;;9.83;53.40;99371.00;5074039;28;20016;-53
2022/03/02 01:01:11;;;;;;;21.92;13.00;;;;;;;9.88;53.30;99375.72;5092098;28;20545;-53
2022/03/02 01:03:37;;;;;;;27.45;10.27;;;;;;;9.93;53.58;99381.25;5092098;28;20385;-53
2022/03/02 01:06:05;;;;;;;34.35;17.60;;;;;;;9.98;53.13;99371.88;5092042;28;20024;-53
2022/03/02 01:08:32;;;;;;;28.33;11.10;;;;;;;10.10;54.52;99374.84;5092068;28;20020;-53
2022/03/02 01:10:58;;;;;;;19.00;8.70;;;;;;;10.15;53.05;99369.88;5091922;28;20367;-53
2022/03/02 01:13:24;;;;;;;21.85;11.18;;;;;;;10.01;52.82;99370.69;5091987;28;20070;-53
2022/03/02 01:15:50;;;;;;;19.08;8.70;;;;;;;9.76;53.64;99368.31;5073750;28;20030;-53
2022/03/02 01:18:16;;;;;;;15.95;8.93;;;;;;;9.62;54.40;99363.84;5091862;28;20067;-52
2022/03/02 01:20:42;;;;;;;17.80;8.93;;;;;;;9.59;54.15;99361.56;5073743;28;20028;-52
2022/03/02 01:23:08;;;;;;;21.58;8.75;;;;;;;9.65;54.35;99360.06;5091926;28;20035;-52
2022/03/02 01:25:34;;;;;;;16.92;8.80;;;;;;;9.54;53.75;99353.44;5091865;28;20023;-52
2022/03/02 01:28:00;;;;;;;20.13;7.55;;;;;;;9.62;53.62;99355.97;5091808;28;20028;-52
2022/03/02 01:30:26;;;;;;;24.65;7.97;;;;;;;9.53;53.67;99352.59;5073560;28;20016;-52
2022/03/02 01:32:52;;;;;;;18.75;8.38;;;;;;;9.52;53.71;99355.41;5091755;28;20027;-52
2022/03/02 01:35:18;;;;;;;29.15;10.73;;;;;;;9.48;53.87;99349.72;5073357;28;20044;-52
2022/03/02 01:37:44;;;;;;;20.40;8.57;;;;;;;9.36;54.90;99344.06;5091832;28;20035;-52
2022/03/02 01:40:10;;;;;;;14.82;7.72;;;;;;;9.42;54.15;99341.72;5073549;28;20376;-52
2022/03/02 01:42:38;;;;;;;24.15;10.52;;;;;;;9.44;54.89;99344.97;5073478;28;20032;-53
2022/03/02 01:45:06;;;;;;;15.13;9.07;;;;;;;9.48;54.83;99346.28;5091622;28;20020;-52
2022/03/02 01:47:32;;;;;;;19.13;8.40;;;;;;;9.43;53.96;99351.22;5091657;28;20012;-52
2022/03/02 01:49:58;;;;;;;22.88;10.40;;;;;;;9.34;54.81;99345.25;5073443;28;20024;-53
2022/03/02 01:52:24;;;;;;;17.92;9.15;;;;;;;9.46;54.74;99350.88;5091572;28;20085;-52
2022/03/02 01:54:50;;;;;;;25.38;11.20;;;;;;;9.54;54.37;99342.97;5091595;28;20032;-53
2022/03/02 01:57:16;;;;;;;22.30;9.18;;;;;;;9.59;54.16;99346.66;5073447;28;20038;-53
2022/03/02 01:59:42;;;;;;;20.80;8.23;;;;;;;9.73;54.45;99342.44;5091516;28;20050;-53
2022/03/02 02:02:08;;;;;;;19.65;7.85;;;;;;;9.83;53.93;99336.94;5073259;28;20024;-52
2022/03/02 02:04:35;;;;;;;19.77;7.22;;;;;;;9.82;53.61;99339.72;5091531;28;20028;-53
2022/03/02 02:07:01;;;;;;;16.75;7.85;;;;;;;9.67;54.16;99340.53;5073254;28;20052;-52
2022/03/02 02:09:27;;;;;;;12.27;6.53;;;;;;;9.65;53.95;99334.66;5077032;28;20505;-52
2022/03/02 02:11:53;;;;;;;22.73;9.27;;;;;;;9.62;54.28;99334.19;5095212;28;20016;-52
2022/03/02 02:14:19;;;;;;;19.65;10.70;;;;;;;9.71;54.08;99320.03;5095267;28;20028;-52
2022/03/02 02:16:45;;;;;;;18.77;8.43;;;;;;;9.66;53.91;99333.66;5095203;28;20054;-52
2022/03/02 02:19:10;;;;;;;22.02;7.75;;;;;;;9.62;54.65;99327.16;5095139;28;20085;-52
2022/03/02 02:21:36;;;;;;;18.23;7.38;;;;;;;9.77;54.49;99314.88;5095105;28;20405;-52
2022/03/02 02:24:03;;;;;;;15.82;8.02;;;;;;;9.82;54.27;99322.22;5095017;28;20024;-53
2022/03/02 02:26:29;;;;;;;16.75;8.77;;;;;;;9.95;53.96;99319.75;5095045;28;20024;-53
2022/03/02 02:28:55;;;;;;;22.65;11.63;;;;;;;10.04;53.55;99320.50;5076677;28;20024;-52
2022/03/02 02:31:21;;;;;;;19.35;8.65;;;;;;;9.97;53.20;99315.16;5094786;28;20107;-52
2022/03/02 02:33:48;;;;;;;15.88;8.38;;;;;;;9.94;53.55;99317.31;5094885;28;20420;-53
2022/03/02 02:36:14;;;;;;;14.52;7.18;;;;;;;9.96;53.40;99312.69;5094612;28;20055;-53
2022/03/02 02:38:41;;;;;;;18.17;10.88;;;;;;;9.86;53.74;99318.25;5094769;28;20107;-52
2022/03/02 02:41:07;;;;;;;21.92;9.38;;;;;;;9.83;53.79;99318.59;5094711;28;20504;-53
2022/03/02 02:43:34;;;;;;;17.15;7.40;;;;;;;9.83;53.77;99317.78;5094740;28;20047;-53
2022/03/02 02:45:59;;;;;;;15.52;6.75;;;;;;;9.91;53.81;99325.56;5094605;28;20024;-52
2022/03/02 02:48:25;;;;;;;19.70;7.38;;;;;;;9.86;54.20;99320.88;5094610;28;20162;-52
2022/03/02 02:50:51;;;;;;;16.58;7.63;;;;;;;9.93;53.46;99321.75;5094529;28;20028;-52
2022/03/02 02:53:17;;;;;;;14.07;7.28;;;;;;;9.88;53.88;99325.91;5094522;28;20016;-52
2022/03/02 02:55:44;;;;;;;15.18;7.90;;;;;;;9.83;54.56;99323.81;5094400;28;20081;-52
2022/03/02 02:58:11;;;;;;;24.00;8.75;;;;;;;9.86;54.39;99323.47;5094436;28;20160;-53
2022/03/02 03:00:41;;;;;;;21.00;7.20;;;;;;;10.05;54.06;99316.88;5076198;28;20024;-53
2022/03/02 03:03:07;;;;;;;20.00;8.23;;;;;;;10.15;53.21;99324.47;5094316;28;20020;-52
2022/03/02 03:05:34;;;;;;;14.50;8.05;;;;;;;10.07;53.12;99335.06;5094241;28;20035;-52
2022/03/02 03:08:06;;;;;;;18.42;7.95;;;;;;;10.03;53.09;99318.06;5094188;28;20024;-52
2022/03/02 03:10:33;;;;;;;15.57;6.65;;;;;;;9.95;53.40;99319.75;5075926;28;20024;-52
2022/03/02 03:12:59;;;;;;;20.42;8.60;;;;;;;9.97;53.88;99325.63;5075962;28;20111;-53
2022/03/02 03:15:25;;;;;;;19.55;7.50;;;;;;;9.99;53.25;99318.41;5094136;28;20103;-52
2022/03/02 03:17:52;;;;;;;15.75;7.03;;;;;;;9.97;53.44;99319.59;5094071;28;20019;-53
2022/03/02 03:20:21;;;;;;;18.45;7.97;;;;;;;9.94;54.06;99323.41;5093707;28;20078;-52
2022/03/02 03:22:47;;;;;;;17.35;6.55;;;;;;;9.99;53.80;99317.59;5075764;28;20028;-53
2022/03/02 03:25:14;;;;;;;18.42;7.28;;;;;;;10.13;53.33;99315.97;5093913;28;20396;-52
2022/03/02 03:27:41;;;;;;;22.75;8.68;;;;;;;10.14;53.33;99318.41;5093908;28;20028;-52
2022/03/02 03:30:08;;;;;;;20.05;7.95;;;;;;;10.14;54.01;99313.19;5093637;28;20077;-53
2022/03/02 03:32:35;;;;;;;19.77;7.72;;;;;;;10.20;53.20;99312.44;5093720;28;20510;-52
2022/03/02 03:35:04;;;;;;;22.77;8.05;;;;;;;10.32;53.09;99314.63;5093252;28;20075;-52
2022/03/02 03:37:30;;;;;;;17.80;8.57;;;;;;;10.37;52.78;99314.91;5085359;28;20497;-52
2022/03/02 03:39:56;;;;;;;14.95;6.82;;;;;;;10.36;52.49;99311.47;5093648;28;20080;-52
2022/03/02 03:42:24;;;;;;;15.68;7.47;;;;;;;10.30;52.50;99306.97;5093521;28;20028;-52
2022/03/02 03:44:51;;;;;;;16.10;7.70;;;;;;;10.21;53.11;99305.38;5093474;28;20028;-52
2022/03/02 03:47:18;;;;;;;16.73;6.80;;;;;;;10.21;53.46;99305.38;5075164;28;20016;-53
2022/03/02 03:49:43;;;;;;;18.40;8.48;;;;;;;10.25;52.73;99306.66;5075189;28;20024;-52
2022/03/02 03:52:09;;;;;;;18.02;6.97;;;;;;;10.10;52.95;99293.56;5093300;28;20072;-53
2022/03/02 03:54:36;;;;;;;19.08;7.70;;;;;;;10.15;53.19;99301.69;5093298;28;20020;-52
2022/03/02 03:57:03;;;;;;;17.27;7.80;;;;;;;10.31;53.40;99294.66;5093228;28;20077;-52
2022/03/02 03:59:28;;;;;;;17.35;7.60;;;;;;;10.42;52.79;99294.16;5075045;28;20027;-52
2022/03/02 04:01:54;;;;;;;20.52;7.60;;;;;;;10.58;52.70;99301.84;5093144;28;20516;-53
2022/03/02 04:04:20;;;;;;;15.75;6.80;;;;;;;10.67;51.54;99283.34;5093150;28;20394;-52
2022/03/02 04:06:46;;;;;;;16.10;6.80;;;;;;;10.65;51.93;99285.34;5093108;28;20027;-52
2022/03/02 04:09:11;;;;;;;11.85;5.45;;;;;;;10.66;51.49;99284.31;5093314;28;20030;-52
2022/03/02 04:11:38;;;;;;;19.23;8.00;;;;;;;10.55;51.27;99275.94;5092953;28;20016;-53
2022/03/02 04:14:03;;;;;;;15.77;6.18;;;;;;;10.50;51.86;99275.69;5092935;28;20064;-53
2022/03/02 04:16:29;;;;;;;19.33;6.72;;;;;;;10.50;51.67;99280.94;5092913;28;20047;-53
2022/03/02 04:18:55;;;;;;;20.40;8.18;;;;;;;10.41;51.83;99276.00;5092857;28;20478;-52
2022/03/02 04:21:21;;;;;;;72.18;14.95;;;;;;;10.49;51.69;99281.13;5092794;28;20023;-52
2022/03/02 04:23:46;;;;;;;31.27;9.63;;;;;;;10.57;51.52;99281.00;5092759;28;20031;-52
2022/03/02 04:26:12;;;;;;;20.00;6.95;;;;;;;10.62;50.97;99281.25;5092732;28;20103;-52
2022/03/02 04:28:38;;;;;;;19.38;7.60;;;;;;;10.53;51.30;99266.63;5092932;28;20508;-52
2022/03/02 04:31:04;;;;;;;14.48;5.63;;;;;;;10.45;50.85;99277.25;5073691;28;20093;-52
2022/03/02 04:33:30;;;;;;;14.68;7.35;;;;;;;10.32;51.44;99273.47;5092684;28;20020;-53
2022/03/02 04:35:56;;;;;;;17.17;6.85;;;;;;;10.30;52.18;99272.84;5092276;28;20083;-52
2022/03/02 04:38:22;;;;;;;41.30;8.80;;;;;;;10.39;52.43;99266.47;5092529;28;20048;-52
2022/03/02 04:40:48;;;;;;;13.63;6.65;;;;;;;10.54;51.43;99268.25;5092477;28;20024;-52
2022/03/02 04:43:14;;;;;;;19.35;7.07;;;;;;;10.61;51.01;99263.91;5074227;28;20497;-52
2022/03/02 04:45:40;;;;;;;18.98;7.03;;;;;;;10.66;50.77;99260.69;5092396;28;20042;-53
2022/03/02 04:48:08;;;;;;;18.85;7.82;;;;;;;10.74;51.06;99269.25;5074104;28;20517;-52
2022/03/02 04:50:34;;;;;;;18.65;7.18;;;;;;;10.86;50.46;99274.84;5092245;28;20024;-53
2022/03/02 04:53:01;;;;;;;19.83;7.65;;;;;;;10.88;50.25;99259.69;5092274;28;20455;-53
2022/03/02 04:55:27;;;;;;;15.65;6.80;;;;;;;10.94;49.44;99266.81;5074016;28;20397;-53
2022/03/02 04:57:58;;;;;;;14.50;7.40;;;;;;;10.87;49.66;99262.53;5092236;28;20024;-53
2022/03/02 05:00:30;;;;;;;14.40;8.35;;;;;;;10.77;49.60;99262.84;5092214;28;20028;-52
2022/03/02 05:02:57;;;;;;;18.33;7.53;;;;;;;10.68;49.90;99269.22;5092177;28;20035;-52
2022/03/02 05:05:25;;;;;;;17.33;7.65;;;;;;;10.66;50.09;99260.69;5092076;28;20051;-53
2022/03/02 05:07:51;;;;;;;20.42;7.60;;;;;;;10.63;50.23;99266.34;5092125;28;20501;-52
2022/03/02 05:10:20;;;;;;;12.32;5.82;;;;;;;10.58;49.92;99272.13;5073852;28;20028;-52
2022/03/02 05:12:46;;;;;;;21.13;7.05;;;;;;;10.50;50.93;99264.38;5092037;28;20022;-52
2022/03/02 05:15:14;;;;;;;14.27;7.35;;;;;;;10.56;50.40;99264.47;5092003;28;20024;-52
2022/03/02 05:17:41;;;;;;;14.25;6.72;;;;;;;10.50;50.34;99265.22;5092012;28;20026;-53
2022/03/02 05:20:09;;;;;;;15.88;6.95;;;;;;;10.30;50.56;99266.75;5091954;28;20039;-52
2022/03/02 05:22:35;;;;;;;13.55;6.05;;;;;;;10.30;50.84;99264.16;5091924;28;20024;-52
2022/03/02 05:25:04;;;;;;;16.50;7.70;;;;;;;10.38;50.47;99259.63;5091885;28;20388;-52
2022/03/02 05:27:30;;;;;;;16.70;7.47;;;;;;;10.36;50.78;99259.00;5073737;28;20062;-53
2022/03/02 05:29:56;;;;;;;15.70;6.75;;;;;;;10.34;52.96;99260.16;5091782;28;20024;-52
2022/03/02 05:32:21;;;;;;;19.30;8.13;;;;;;;10.18;51.79;99259.34;5073558;28;20048;-52
2022/03/02 05:34:47;;;;;;;16.10;6.35;;;;;;;10.08;51.88;99256.22;5073601;28;20020;-52
2022/03/02 05:37:13;;;;;;;15.63;6.50;;;;;;;10.11;52.67;99266.31;5091607;28;20054;-52
2022/03/02 05:39:39;;;;;;;19.70;10.07;;;;;;;10.33;51.73;99255.91;5091791;28;20410;-52
2022/03/02 05:42:05;;;;;;;17.75;7.68;;;;;;;10.57;52.07;99258.19;5093440;28;20446;-53
2022/03/02 05:44:31;;;;;;;24.65;14.38;;;;;;;10.73;51.05;99245.84;5095848;28;20023;-53
2022/03/02 05:46:57;;;;;;;30.95;15.32;;;;;;;10.76;50.01;99254.13;5095792;28;20103;-52
2022/03/02 05:49:23;;;;;;;25.15;12.32;;;;;;;10.79;50.26;99250.34;5095778;28;20412;-52
2022/03/02 05:51:48;;;;;;;37.63;22.77;;;;;;;10.84;49.74;99249.78;5095614;28;20445;-52
2022/03/02 05:54:14;;;;;;;18.08;8.35;;;;;;;10.90;49.57;99244.56;5077469;28;20024;-53
2022/03/02 05:56:40;;;;;;;23.58;9.95;;;;;;;11.02;49.02;99252.75;5095630;28;20020;-53
2022/03/02 05:59:08;;;;;;;21.50;8.88;;;;;;;11.05;48.52;99252.41;5095605;28;20512;-53
2022/03/02 06:01:34;;;;;;;14.95;7.63;;;;;;;10.90;48.83;99249.81;5095484;28;20024;-52
2022/03/02 06:04:01;;;;;;;15.48;8.00;;;;;;;10.85;48.97;99246.97;5095527;28;20026;-53
2022/03/02 06:06:32;;;;;;;20.00;8.82;;;;;;;10.85;50.69;99249.59;5077141;28;20024;-53
2022/03/02 06:09:03;;;;;;;27.13;9.98;;;;;;;10.85;51.44;99248.78;5077217;28;20027;-53
2022/03/02 06:11:29;;;;;;;17.23;7.95;;;;;;;10.78;51.94;99254.78;5095304;28;20035;-53
2022/03/02 06:13:56;;;;;;;14.77;7.50;;;;;;;10.72;51.45;99262.59;5095310;28;20027;-53
2022/03/02 06:16:22;;;;;;;24.75;10.10;;;;;;;10.82;49.84;99257.84;5095231;28;20116;-53
2022/03/02 06:18:49;;;;;;;19.77;8.40;;;;;;;10.84;49.97;99263.72;5095228;28;20038;-53
2022/03/02 06:21:18;;;;;;;15.65;7.53;;;;;;;10.97;49.78;99253.34;5095151;28;20024;-53
2022/03/02 06:23:45;;;;;;;19.65;11.60;;;;;;;11.11;49.72;99264.78;5095092;28;20401;-53
2022/03/02 06:26:10;;;;;;;17.75;8.85;;;;;;;11.20;48.42;99268.06;5095294;28;20051;-52
2022/03/02 06:28:36;;;;;;;19.90;8.82;;;;;;;11.21;48.21;99264.44;5095026;28;20062;-52
2022/03/02 06:31:02;;;;;;;21.90;9.65;;;;;;;11.39;48.50;99269.25;5094880;28;20023;-53
2022/03/02 06:33:28;;;;;;;19.60;7.75;;;;;;;11.69;48.30;99271.66;5094855;28;20505;-53
2022/03/02 06:35:53;;;;;;;16.77;7.50;;;;;;;12.19;47.08;99261.81;5076464;28;20047;-53
2022/03/02 06:38:20;;;;;;;18.33;6.70;;;;;;;12.53;45.48;99266.19;5094845;28;20024;-53
2022/03/02 06:41:05;;;;;;;19.67;8.55;;;;;;;12.58;44.78;99262.97;5094703;28;20118;-53
2022/03/02 06:43:38;;;;;;;18.02;7.07;;;;;;;12.33;45.33;99262.69;5094803;28;20081;-54
2022/03/02 06:46:11;;;;;;;13.43;6.88;;;;;;;12.21;44.80;99265.06;5094655;28;20052;-53
2022/03/02 06:49:04;;;;;;;15.50;8.15;;;;;;;12.16;45.40;99260.41;5094660;28;20081;-53
2022/03/02 06:51:31;;;;;;;14.75;6.03;;;;;;;12.26;45.20;99265.28;5094212;28;20028;-53
2022/03/02 06:53:58;;;;;;;17.02;7.20;;;;;;;12.32;45.35;99267.13;5075690;28;20031;-53
2022/03/02 06:56:27;;;;;;;17.23;8.70;;;;;;;12.52;44.66;99267.19;5076266;28;20016;-53
2022/03/02 06:58:55;;;;;;;15.07;6.90;;;;;;;12.54;45.07;99277.53;5094452;28;20031;-53
2022/03/02 07:01:26;;;;;;;16.23;8.10;;;;;;;12.62;44.26;99274.72;5094407;28;20099;-53
2022/03/02 07:03:57;;;;;;;25.30;7.32;;;;;;;12.61;44.67;99273.09;5094414;28;20117;-53
2022/03/02 07:06:25;;;;;;;15.80;7.32;;;;;;;12.62;44.40;99279.19;5094345;28;20061;-53
2022/03/02 07:08:52;;;;;;;21.08;8.02;;;;;;;12.57;44.31;99285.03;5094274;28;20028;-53
2022/03/02 07:11:19;;;;;;;21.20;7.70;;;;;;;12.58;44.59;99282.22;5094111;28;20027;-53
2022/03/02 07:13:49;;;;;;;13.38;7.10;;;;;;;12.93;44.21;99284.69;5094165;28;20047;-53
2022/03/02 07:16:16;;;;;;;15.15;6.20;;;;;;;13.46;43.12;99283.13;5094084;28;20097;-53
2022/03/02 07:18:43;;;;;;;13.50;5.60;;;;;;;14.02;41.42;99281.81;5094085;28;20016;-53
2022/03/02 07:21:14;;;;;;;17.65;5.90;;;;;;;14.25;41.09;99281.34;5094043;28;20024;-51
2022/03/02 07:23:54;;;;;;;13.30;5.43;;;;;;;14.41;40.24;99278.22;5075761;28;20020;-51
2022/03/02 07:26:21;;;;;;;12.18;5.40;;;;;;;14.49;39.63;99277.97;5075809;28;20443;-51
2022/03/02 07:28:48;;;;;;;12.63;5.43;;;;;;;14.46;39.84;99275.75;5093834;28;20056;-51
2022/03/02 07:31:15;;;;;;;11.45;5.25;;;;;;;14.56;39.64;99283.25;5093681;28;20031;-51
2022/03/02 07:33:42;;;;;;;16.33;6.07;;;;;;;14.44;40.18;99283.06;5093748;28;20042;-51
2022/03/02 07:36:12;;;;;;;16.35;5.68;;;;;;;14.51;40.15;99281.22;5093446;28;20413;-51
2022/03/02 07:38:38;;;;;;;25.35;5.53;;;;;;;14.72;39.37;99279.28;5093650;28;20030;-51
2022/03/02 07:41:10;;;;;;;10.90;5.72;;;;;;;15.05;38.87;99272.97;5093605;28;20028;-51
2022/03/02 07:43:38;;;;;;;14.25;5.25;;;;;;;15.31;38.08;99272.78;5093604;28;20397;-51
2022/03/02 07:46:06;;;;;;;10.35;5.38;;;;;;;15.68;37.40;99275.47;5093532;28;20040;-52
2022/03/02 07:48:32;;;;;;;14.88;5.28;;;;;;;15.73;37.13;99277.50;5093488;28;20016;-51
2022/03/02 07:51:01;;;;;;;8.93;4.55;;;;;;;15.86;36.97;99258.84;5093341;28;20027;-51
2022/03/02 07:53:33;;;;;;;22.42;6.57;;;;;;;15.91;36.82;99268.75;5075214;28;20020;-51
2022/03/02 07:56:01;;;;;;;17.20;4.50;;;;;;;16.30;36.31;99266.69;5093340;28;20028;-51
2022/03/02 07:58:27;;;;;;;12.05;4.97;;;;;;;16.68;35.55;99266.38;5093246;28;20023;-51
2022/03/02 08:00:54;;;;;;;22.25;6.22;;;;;;;17.10;35.02;99261.09;5093182;28;20083;-51
2022/03/02 08:03:25;;;;;;;14.65;5.22;;;;;;;17.28;34.35;99262.81;5093166;28;20043;-51
2022/03/02 08:05:51;;;;;;;20.23;5.93;;;;;;;17.65;34.11;99254.63;5073969;28;20175;-51
2022/03/02 08:08:16;;;;;;;16.58;5.93;;;;;;;17.76;33.11;99259.09;5093111;28;20012;-52
2022/03/02 08:10:44;;;;;;;11.02;5.18;;;;;;;17.76;32.64;99268.91;5074724;28;20426;-51
2022/03/02 08:13:14;;;;;;;13.02;4.70;;;;;;;17.75;32.96;99265.47;5092973;28;20028;-51
2022/03/02 08:15:40;;;;;;;14.80;4.72;;;;;;;17.95;32.70;99257.16;5092938;28;20027;-51
2022/03/02 08:18:07;;;;;;;14.55;5.47;;;;;;;17.92;32.67;99262.13;5092908;28;20049;-51
2022/03/02 08:20:35;;;;;;;18.73;5.07;;;;;;;17.76;32.71;99259.09;5092814;28;20069;-51
2022/03/02 08:23:05;;;;;;;12.73;4.70;;;;;;;17.70;32.96;99268.00;5074566;28;20016;-52
2022/03/02 08:25:34;;;;;;;17.02;5.05;;;;;;;17.58;33.03;99254.72;5092836;28;20235;-51
2022/03/02 08:28:14;;;;;;;22.23;5.75;;;;;;;17.48;33.48;99251.06;5109532;27;20951;-50
2022/03/02 08:30:42;;;;;;;8.23;4.22;;;;;;;17.74;33.05;99249.75;5125429;28;20050;-50
2022/03/02 08:33:10;;;;;;;13.63;4.13;;;;;;;17.85;32.67;99256.94;5109642;28;20027;-51
2022/03/02 08:35:39;;;;;;;20.92;6.30;;;;;;;17.99;32.87;99257.50;5125385;28;20020;-51
2022/03/02 08:38:04;;;;;;;14.95;4.50;;;;;;;17.96;32.22;99258.75;5125299;28;20022;-51
2022/03/02 08:40:30;;;;;;;23.83;6.68;;;;;;;17.46;33.28;99261.09;5109422;28;20103;-51
2022/03/02 08:43:00;;;;;;;17.30;4.68;;;;;;;17.16;33.47;99248.72;5125259;28;20468;-51
2022/03/02 08:45:26;;;;;;;17.25;6.18;;;;;;;16.94;34.10;99251.94;5109276;28;20020;-50
2022/03/02 08:47:54;;;;;;;12.65;3.83;;;;;;;16.93;33.79;99258.28;5109209;28;20016;-51
2022/03/02 08:50:20;;;;;;;21.70;5.35;;;;;;;16.90;34.23;99250.78;5109306;28;20027;-51
2022/03/02 08:52:48;;;;;;;14.85;4.95;;;;;;;16.68;34.25;99253.13;5109256;28;20103;-51
2022/03/02 08:55:13;;;;;;;14.60;5.32;;;;;;;16.36;35.17;99239.31;5124968;28;20020;-50
2022/03/02 08:57:42;;;;;;;11.52;3.92;;;;;;;16.05;34.92;99264.13;5124937;28;20028;-50
2022/03/02 09:00:09;;;;;;;15.32;4.53;;;;;;;15.70;35.87;99249.59;5124948;28;20031;-50
2022/03/02 09:02:36;;;;;;;16.60;5.00;;;;;;;15.41;36.82;99245.00;5109081;28;20090;-51
2022/03/02 09:05:05;;;;;;;15.32;4.82;;;;;;;15.54;36.48;99242.25;5109052;28;20072;-51
2022/03/02 09:07:31;;;;;;;10.13;3.75;;;;;;;15.41;36.31;99243.16;5108866;28;20020;-51
2022/03/02 09:09:59;;;;;;;13.48;4.18;;;;;;;15.11;37.28;99248.31;5109029;28;20125;-51
2022/03/02 09:12:25;;;;;;;9.00;3.60;;;;;;;15.02;36.87;99245.13;5124656;28;20490;-50
2022/03/02 09:14:51;;;;;;;9.15;4.05;;;;;;;14.96;37.30;99232.78;5124572;28;20053;-53
2022/03/02 09:17:25;;;;;;;13.73;4.68;;;;;;;15.07;37.46;99245.31;5108766;28;20024;-52
2022/03/02 09:19:55;;;;;;;11.18;3.35;;;;;;;15.30;36.74;99243.91;5108802;28;20138;-52
2022/03/02 09:22:23;;;;;;;10.85;4.15;;;;;;;15.45;36.55;99228.47;5108712;28;20497;-53
2022/03/02 09:24:49;;;;;;;16.00;3.88;;;;;;;15.60;36.20;99227.34;5124364;28;20420;-52
2022/03/02 09:27:17;;;;;;;7.10;3.92;;;;;;;15.76;36.12;99226.78;5108258;28;20104;-50
2022/03/02 09:29:46;;;;;;;10.77;4.40;;;;;;;15.98;35.65;99227.16;5108563;28;20027;-50
2022/03/02 09:32:13;;;;;;;10.85;4.13;;;;;;;16.15;35.16;99211.44;5108441;28;20032;-51
2022/03/02 09:34:43;;;;;;;7.30;3.80;;;;;;;16.22;35.67;99209.53;5124234;28;20032;-51
2022/03/02 09:37:10;;;;;;;12.68;4.32;;;;;;;16.38;35.07;99216.03;5108446;28;20032;-51
2022/03/02 09:39:36;;;;;;;24.88;5.30;;;;;;;16.48;34.79;99212.81;5109877;28;20505;-51
2022/03/02 09:42:10;;;;;;;11.88;5.07;;;;;;;16.66;35.32;99210.13;5094738;28;20031;-50
2022/03/02 09:44:45;;;;;;;12.52;4.22;;;;;;;16.87;34.17;99206.16;5094799;28;20024;-51
2022/03/02 09:47:21;;;;;;;17.15;4.20;;;;;;;16.82;34.67;99199.94;5094580;28;20107;-51
2022/03/02 09:49:56;;;;;;;18.92;5.07;;;;;;;17.15;34.58;99205.50;5094717;28;20043;-51
2022/03/02 09:52:23;;;;;;;13.82;4.60;;;;;;;17.59;33.29;99205.13;5094844;28;20032;-51
2022/03/02 09:54:55;;;;;;;27.77;5.80;;;;;;;17.80;33.64;99206.34;5094575;28;20081;-51
2022/03/02 09:57:22;;;;;;;23.88;5.53;;;;;;;17.83;33.45;99202.41;5094463;28;20020;-51
2022/03/02 09:59:55;;;;;;;23.13;6.93;;;;;;;17.91;33.31;99189.63;5094466;28;20490;-51
2022/03/02 10:02:40;;;;;;;11.85;4.07;;;;;;;18.22;32.50;99186.75;5094467;28;20501;-51
2022/03/02 10:05:12;;;;;;;13.75;4.70;;;;;;;18.82;32.27;99185.41;5094434;28;20059;-51
2022/03/02 10:07:44;;;;;;;13.05;4.80;;;;;;;20.12;30.74;99185.00;5094356;28;20398;-51
2022/03/02 10:10:13;;;;;;;13.68;4.80;;;;;;;20.90;28.54;99184.66;5094289;28;20097;-51
2022/03/02 10:12:39;;;;;;;15.20;4.18;;;;;;;21.47;28.02;99183.16;5109891;28;20119;-51
2022/03/02 10:15:12;;;;;;;10.27;4.55;;;;;;;22.05;26.86;99178.56;5094157;28;20099;-50
2022/03/02 10:17:44;;;;;;;11.93;3.97;;;;;;;21.91;26.91;99188.97;5094118;28;20115;-51
2022/03/02 10:20:20;;;;;;;18.08;4.82;;;;;;;21.32;28.10;99182.00;5094057;28;20462;-51
2022/03/02 10:22:46;;;;;;;10.13;4.25;;;;;;;20.49;28.59;99179.78;5109756;28;20104;-51
2022/03/02 10:25:15;;;;;;;10.70;3.60;;;;;;;19.63;29.99;99180.41;5109590;28;20078;-51
2022/03/02 10:28:01;;;;;;;14.13;4.30;;;;;;;19.31;30.68;99173.06;5092344;28;20056;-51
2022/03/02 10:30:41;;;;;;;14.63;4.70;;;;;;;19.34;30.95;99174.47;5093832;28;20080;-51
2022/03/02 10:33:24;;;;;;;12.13;3.78;;;;;;;19.80;29.69;99167.09;5109566;28;20028;-51
2022/03/02 10:35:52;;;;;;;10.57;3.65;;;;;;;20.46;29.33;99156.25;5093797;28;20569;-51
2022/03/02 10:38:29;;;;;;;17.92;4.00;;;;;;;21.06;27.97;99150.88;5093648;28;20028;-52
2022/03/02 10:40:59;;;;;;;11.70;3.95;;;;;;;20.68;28.21;99142.88;5093702;28;20024;-51
2022/03/02 10:43:40;;;;;;;6.07;3.50;;;;;;;20.82;28.57;99159.25;5093634;28;20032;-51
2022/03/02 10:46:09;;;;;;;9.45;3.72;;;;;;;21.18;27.58;99142.69;5109127;28;20032;-51
2022/03/02 10:48:42;;;;;;;10.13;4.28;;;;;;;21.00;28.04;99154.56;5093510;28;20547;-50
2022/03/02 10:51:10;;;;;;;8.32;3.70;;;;;;;21.30;27.78;99148.63;5092469;28;20722;-51
2022/03/02 10:53:39;;;;;;;7.82;4.25;;;;;;;21.59;27.10;99132.19;5093456;28;20027;-51
2022/03/02 10:56:08;;;;;;;12.15;5.63;;;;;;;21.46;27.29;99139.63;5108994;28;20431;-51
2022/03/02 10:58:35;;;;;;;15.23;4.90;;;;;;;21.67;27.17;99132.53;5093343;28;20562;-51
2022/03/02 11:01:02;;;;;;;12.15;5.35;;;;;;;22.21;26.73;99133.16;5093214;28;20043;-51
2022/03/02 11:03:33;;;;;;;7.45;4.18;;;;;;;22.30;26.64;99131.59;5108806;28;20032;-51
2022/03/02 11:06:01;;;;;;;8.02;4.15;;;;;;;22.52;26.39;99129.47;5093151;28;20066;-52
2022/03/02 11:08:29;;;;;;;6.05;3.55;;;;;;;22.39;26.31;99142.56;5093116;28;20077;-51
2022/03/02 11:10:56;;;;;;;7.88;3.15;;;;;;;22.06;25.92;99142.75;5093044;28;20023;-51
2022/03/02 11:13:26;;;;;;;8.05;4.10;;;;;;;21.03;27.35;99135.41;5092972;28;20437;-51
2022/03/02 11:15:58;;;;;;;9.95;3.67;;;;;;;20.44;27.91;99145.06;5108575;28;20036;-51
2022/03/02 11:18:38;;;;;;;7.93;3.53;;;;;;;20.24;28.72;99131.53;5092948;28;20028;-51
2022/03/02 15:09:28;;;;;;;29.42;6.13;;;;;;;16.77;36.30;98954.88;4924280;29;20119;-49
2022/03/02 15:11:54;;;;;;;21.15;4.53;;;;;;;16.84;36.34;98952.16;4916570;29;20083;-49
2022/03/02 15:17:09;;;;;;;10.23;3.75;;;;;;;16.67;36.50;98951.22;4916828;29;20042;-50
2022/03/02 15:20:10;;;;;;;6.13;3.97;;;;;;;16.73;36.61;98955.59;4916637;29;20029;-49